Sevier River / Vermillion Canal




Date Battery Voltage (V) Canal Stage above Flume (ft) Canal Stage below Flume (ft) Canal Flow (cfs) Canal Gate Height (%) River Stage at Dam (ft) River Flow at Dam (cfs) Pond Stage at Gate (ft) Canal Stage Offset (ft) River Stage below Dam (ft) River Flow below Dam (cfs) Submergence Mossing CFS Set (cfs) Gate Set (%) Auto CFS Auto Gate Gate Warning Settle Count Gate Up Total Gate Down Total
05/01/2018 13.08 0.97 -0.29 30.5 0.35 32 1.16 130.30
05/02/2018 13.13 0.97 -0.26 30.5 0.35 32 1.14 126.80
05/03/2018 13.13 0.97 -0.25 30.3 0.23 18 1.15 128.70
05/04/2018 13.10 0.95 -0.27 29.6 0.19 13 1.17 131.10
05/05/2018 13.04 0.95 -0.28 29.7 0.24 19 1.17 131.20
05/06/2018 13.08 0.95 -0.28 29.7 0.23 18 1.22 140.30
05/07/2018 13.02 0.95 -0.30 29.7 0.27 22 1.88 267.10
05/08/2018 13.01 0.96 -0.32 30.0 0.20 15 1.88 267.30
05/09/2018 12.98 0.96 -0.20 30.1 0.42 43 1.22 238.00
05/10/2018 13.04 0.97 -0.28 30.4 0.47 51 1.75 262.10
05/11/2018 13.04 0.97 -0.35 30.3 0.54 62 1.88 267.70
05/12/2018 13.10 0.97 -0.34 30.3 0.45 47 1.88 266.70
05/13/2018 13.13 0.97 -0.28 30.4 0.41 42 1.88 267.60
05/14/2018 13.12 0.97 -0.21 30.3 0.33 30 1.88 267.70
05/15/2018 13.05 0.97 -0.04 30.3 0.28 23 1.88 268.10
05/16/2018 13.00 0.80 -0.16 22.3 0.20 15 1.88 268.10
05/17/2018 13.06 0.74 -0.28 19.6 0.18 12 1.88 268.10
05/18/2018 13.09 0.74 -0.29 19.6 0.38 36 1.88 268.20
05/19/2018 13.04 0.74 -0.36 19.6 0.40 40 1.88 268.20
05/20/2018 13.07 0.74 -0.37 19.6 0.55 64 1.88 267.70
05/21/2018 13.09 0.74 -0.36 19.6 0.59 71 1.88 268.00
05/22/2018 13.04 0.74 -0.36 19.6 0.60 73 1.88 268.00
05/23/2018 13.07 0.74 -0.36 19.6 0.47 51 1.88 268.10
05/24/2018 13.01 0.74 -0.37 19.7 0.44 46 1.88 268.30
05/25/2018 12.63 0.74 -0.38 19.9 0.46 50 1.88 268.30
05/26/2018 12.75 0.74 -0.38 19.6 0.44 46 1.88 268.10
05/27/2018 12.86 0.74 -0.39 19.5 0.35 33 1.88 267.60
05/28/2018 12.94 0.73 -0.39 19.3 0.52 59 1.87 266.30
05/29/2018 13.07 0.73 -0.39 19.3 0.57 67 1.88 268.20
05/30/2018 13.11 0.73 -0.36 19.2 0.68 88 1.88 268.10
05/31/2018 13.11 0.70 -0.35 18.2 0.57 67 1.88 268.10
Average 24.7 41 240.26 0.00
Maximum 30.5 88 268.30
Minimum 18.2 12 126.80
Total Volume (AF) 1,519.6 2,548 14,769.58 0.00